Карточка аэропорта USSS

Внимание!
Информация на этой странице в стадии наполнения.
Если вы не увидели какой-то информации, или заметили неточность - пожалуйста сообщите нам!
Спасибо!
Команда RU-STAFF
Название аэропортаКольцово
Название аэропорта (англ.)Koltsovo
Превышение766 ft. (233.5 m.)
Координаты56°44.586', 60°48.186'
Высота перехода900m
Эшелон переходаQFE>=739mm:FL050; QFE 712mm-738mm:FL060; QFE<=712mm:FL70
Коды ответчика5520-5557
Зона ОрВДЕкатеринбург РПИ (USSV)
Данные METARUSSS 302030Z 02003MPS 9999 -SN SCT030 M11/M13 Q1038 R26L/490140 NOSIG RMK QFE758/1010
Проноз погоды (TAF)USSS 301955Z 3021/0121 01003MPS 6000 -SN BKN016 TEMPO 3021/0105 0300 FZFG BECMG 0108/0109 05003G08MPS 9999 -SN BECMG 0111/0112 6000 -SN
NOTAMshow/hide NOTAM
AWOS   TABLE

Информация о ВПП

ВПП Длина ВПП (м.) Покрытие Курс ВПП Частота ILS
08L3004Асфальтобетон75111.7
08R3026Бетон79109.9
26R3004Асфальтобетон255110.5
26L3026Бетон259109.5

Диспетчерские позиции

Позывной Наименование органа УВД Частота
USSS_APPКольцово-Подход125.9
USSS_R_APPКольцово-Круг118.7
USSS_TWRКольцово-Старт124.3
USSS_GNDКольцово-Руление119.0
USSSFM1Машина сопровождения119.000
USSV_FSS_CTRКольцово Транзит131.900
USSS_ATIS_APPКольцово АТИС127.850



Спутниковое изображение